createdAt,value
2018-05-24T00:00:09.245Z,1006.52
2018-05-24T00:01:09.266Z,1006.57
2018-05-24T00:02:09.231Z,1006.54
2018-05-24T00:03:09.196Z,1006.54
2018-05-24T00:04:09.194Z,1006.56
2018-05-24T00:05:09.185Z,1006.58
2018-05-24T00:06:09.146Z,1006.60
2018-05-24T00:07:09.242Z,1006.62
2018-05-24T00:08:09.132Z,1006.60
2018-05-24T00:09:09.150Z,1006.63
2018-05-24T00:10:09.084Z,1006.58
2018-05-24T00:11:09.109Z,1006.58
2018-05-24T00:12:09.049Z,1006.58
2018-05-24T00:13:09.083Z,1006.57
2018-05-24T00:14:09.017Z,1006.58
2018-05-24T00:15:09.008Z,1006.58
2018-05-24T00:16:09.010Z,1006.57
2018-05-24T00:17:08.992Z,1006.59
2018-05-24T00:18:08.984Z,1006.57
2018-05-24T00:19:08.940Z,1006.54
2018-05-24T00:20:08.944Z,1006.57
2018-05-24T00:21:09.020Z,1006.54
2018-05-24T00:22:08.905Z,1006.52
2018-05-24T00:23:08.890Z,1006.53
2018-05-24T00:24:08.894Z,1006.55
2018-05-24T00:25:08.873Z,1006.50
2018-05-24T00:26:08.847Z,1006.56
2018-05-24T00:27:08.816Z,1006.58
2018-05-24T00:28:08.815Z,1006.52
2018-05-24T00:29:08.801Z,1006.54
2018-05-24T00:30:08.800Z,1006.55
2018-05-24T00:31:08.771Z,1006.51
2018-05-24T00:32:08.734Z,1006.53
2018-05-24T00:33:08.733Z,1006.50
2018-05-24T00:34:08.699Z,1006.51
2018-05-24T00:35:08.720Z,1006.50
2018-05-24T00:36:08.752Z,1006.48
2018-05-24T00:37:08.675Z,1006.49
2018-05-24T00:38:08.657Z,1006.45
2018-05-24T00:39:08.646Z,1006.42
2018-05-24T00:40:08.687Z,1006.43
2018-05-24T00:41:08.612Z,1006.42
2018-05-24T00:42:08.586Z,1006.46
2018-05-24T00:43:08.641Z,1006.44
2018-05-24T00:44:08.580Z,1006.45
2018-05-24T00:45:08.540Z,1006.45
2018-05-24T00:46:08.520Z,1006.44
2018-05-24T00:47:08.502Z,1006.42
2018-05-24T00:48:08.499Z,1006.42
2018-05-24T00:49:08.459Z,1006.43
2018-05-24T00:50:08.437Z,1006.41
2018-05-24T00:51:08.447Z,1006.39
2018-05-24T00:52:08.420Z,1006.40
2018-05-24T00:53:08.394Z,1006.38
2018-05-24T00:54:08.731Z,1006.40
2018-05-24T00:55:08.393Z,1006.38
2018-05-24T00:56:08.404Z,1006.35
2018-05-24T00:57:08.373Z,1006.37
2018-05-24T00:58:08.337Z,1006.37
2018-05-24T00:59:08.343Z,1006.39
2018-05-24T01:00:08.333Z,1006.42
2018-05-24T01:01:08.294Z,1006.45
2018-05-24T01:02:08.292Z,1006.43
2018-05-24T01:03:08.258Z,1006.42
2018-05-24T01:04:08.270Z,1006.44
2018-05-24T01:05:08.219Z,1006.40
2018-05-24T01:06:08.216Z,1006.38
2018-05-24T01:07:08.211Z,1006.38
2018-05-24T01:08:08.146Z,1006.41
2018-05-24T01:09:08.167Z,1006.36
2018-05-24T01:10:08.161Z,1006.35
2018-05-24T01:11:08.184Z,1006.39
2018-05-24T01:13:41.392Z,1006.38
2018-05-24T01:14:32.121Z,1006.39
2018-05-24T01:15:31.123Z,1006.37
2018-05-24T01:16:31.105Z,1006.35
2018-05-24T01:17:31.118Z,1006.37
2018-05-24T01:18:31.087Z,1006.33
2018-05-24T01:19:31.044Z,1006.36
2018-05-24T01:20:31.077Z,1006.36
2018-05-24T01:21:31.041Z,1006.34
2018-05-24T01:22:30.988Z,1006.32
2018-05-24T01:23:31.004Z,1006.33
2018-05-24T01:24:30.994Z,1006.29
2018-05-24T01:25:31.029Z,1006.30
2018-05-24T01:26:30.985Z,1006.28
2018-05-24T01:27:31.018Z,1006.29
2018-05-24T01:28:30.943Z,1006.28
2018-05-24T01:29:30.916Z,1006.29
2018-05-24T01:30:30.878Z,1006.27
2018-05-24T01:31:42.894Z,1006.21
2018-05-24T01:33:36.349Z,1006.17
2018-05-24T01:34:25.253Z,1006.24
2018-05-24T01:35:25.196Z,1006.20
2018-05-24T01:36:25.191Z,1006.23
2018-05-24T01:37:25.177Z,1006.21
2018-05-24T01:38:25.200Z,1006.17
2018-05-24T01:39:25.186Z,1006.22
2018-05-24T01:40:25.128Z,1006.17
2018-05-24T01:41:25.119Z,1006.15
2018-05-24T01:42:25.087Z,1006.20
2018-05-24T01:43:25.056Z,1006.14
2018-05-24T01:44:25.068Z,1006.12
2018-05-24T01:45:25.038Z,1006.13
2018-05-24T01:46:25.044Z,1006.10
2018-05-24T01:47:24.997Z,1006.11
2018-05-24T01:48:24.969Z,1006.10
2018-05-24T01:49:25.001Z,1006.11
2018-05-24T01:50:24.974Z,1006.13
2018-05-24T01:51:24.918Z,1006.12
2018-05-24T01:52:24.900Z,1006.12
2018-05-24T01:53:24.917Z,1006.06
2018-05-24T01:54:24.955Z,1006.06
2018-05-24T01:55:33.541Z,1006.04
2018-05-24T01:57:29.357Z,1006.05
2018-05-24T01:58:19.379Z,1006.02
2018-05-24T01:59:19.343Z,1006.01
2018-05-24T02:00:19.237Z,1006.01
2018-05-24T02:01:19.285Z,1006.06
2018-05-24T02:02:19.263Z,1006.01
2018-05-24T02:03:19.196Z,1006.03
2018-05-24T02:04:19.195Z,1006.06
2018-05-24T02:05:19.101Z,1006.06
2018-05-24T02:06:19.080Z,1006.04
2018-05-24T02:07:19.112Z,1006.03
2018-05-24T02:08:19.128Z,1006.02
2018-05-24T02:09:19.090Z,1006.00
2018-05-24T02:10:19.127Z,1006.01
2018-05-24T02:11:19.025Z,1006.02
2018-05-24T02:12:19.036Z,1006.03
2018-05-24T02:14:42.082Z,1005.97
2018-05-24T02:15:42.321Z,1005.94
2018-05-24T02:16:42.008Z,1005.91
2018-05-24T02:17:42.582Z,1005.96
2018-05-24T02:18:42.005Z,1005.92
2018-05-24T02:19:41.936Z,1005.96
2018-05-24T02:20:41.926Z,1005.92
2018-05-24T02:21:41.956Z,1005.93
2018-05-24T02:24:16.320Z,1005.93
2018-05-24T02:25:05.949Z,1005.97
2018-05-24T02:26:05.938Z,1005.97
2018-05-24T02:27:05.915Z,1005.95
2018-05-24T02:28:05.865Z,1005.94
2018-05-24T02:30:40.789Z,1005.91
2018-05-24T02:31:30.622Z,1005.90
2018-05-24T02:32:29.940Z,1005.89
2018-05-24T02:33:29.913Z,1005.81
2018-05-24T02:34:29.946Z,1005.84
2018-05-24T02:35:29.885Z,1005.89
2018-05-24T02:36:29.829Z,1005.89
2018-05-24T02:37:29.818Z,1005.91
2018-05-24T02:38:29.886Z,1005.96
2018-05-24T02:39:29.784Z,1005.95
2018-05-24T02:40:29.835Z,1005.95
2018-05-24T02:41:29.796Z,1005.96
2018-05-24T02:42:29.748Z,1006.02
2018-05-24T02:43:29.768Z,1005.98
2018-05-24T02:44:29.714Z,1005.99
2018-05-24T02:45:29.670Z,1006.02
2018-05-24T02:46:29.695Z,1005.97
2018-05-24T02:47:29.651Z,1005.92
2018-05-24T02:48:29.621Z,1006.00
2018-05-24T02:49:29.602Z,1005.98
2018-05-24T02:50:29.633Z,1005.98
2018-05-24T02:51:29.624Z,1005.90
2018-05-24T02:52:29.573Z,1005.99
2018-05-24T02:53:29.550Z,1005.97
2018-05-24T02:54:29.584Z,1005.93
2018-05-24T02:55:29.536Z,1005.96
2018-05-24T02:56:29.546Z,1005.94
2018-05-24T02:57:29.469Z,1005.94
2018-05-24T02:58:29.518Z,1005.95
2018-05-24T02:59:29.435Z,1005.99
2018-05-24T03:00:29.449Z,1005.95
2018-05-24T03:01:29.442Z,1006.00
2018-05-24T03:02:29.416Z,1006.01
2018-05-24T03:03:29.364Z,1006.00
2018-05-24T03:04:29.393Z,1005.98
2018-05-24T03:05:29.362Z,1006.05
2018-05-24T03:06:29.325Z,1006.01
2018-05-24T03:07:29.325Z,1006.01
2018-05-24T03:08:29.291Z,1005.99
2018-05-24T03:09:29.308Z,1005.99
2018-05-24T03:10:29.252Z,1006.00
2018-05-24T03:11:29.232Z,1006.01
2018-05-24T03:12:29.224Z,1006.03
2018-05-24T03:14:52.265Z,1006.06
2018-05-24T03:15:52.328Z,1006.04
2018-05-24T03:16:52.195Z,1006.03
2018-05-24T03:17:52.202Z,1006.05
2018-05-24T03:18:52.172Z,1006.05
2018-05-24T03:19:52.147Z,1006.05
2018-05-24T03:20:52.155Z,1006.02
2018-05-24T03:23:15.192Z,1006.08
2018-05-24T03:24:15.348Z,1006.07
2018-05-24T03:25:15.516Z,1006.15
2018-05-24T03:26:15.095Z,1006.16
2018-05-24T03:27:15.112Z,1006.13
2018-05-24T03:28:15.054Z,1006.12
2018-05-24T03:29:15.086Z,1006.07
2018-05-24T03:30:15.053Z,1006.13
2018-05-24T03:31:15.003Z,1006.08
2018-05-24T03:32:14.984Z,1006.06
2018-05-24T03:33:15.024Z,1006.09
2018-05-24T03:34:14.960Z,1006.10
2018-05-24T03:35:15.024Z,1006.12
2018-05-24T03:36:14.924Z,1006.18
2018-05-24T03:37:14.908Z,1006.14
2018-05-24T03:38:14.878Z,1006.10
2018-05-24T03:39:14.866Z,1006.14
2018-05-24T03:40:14.903Z,1006.11
2018-05-24T03:41:14.828Z,1006.14
2018-05-24T03:42:14.864Z,1006.10
2018-05-24T03:44:47.944Z,1006.10
2018-05-24T03:45:37.957Z,1006.11
2018-05-24T03:46:37.848Z,1006.11
2018-05-24T03:47:37.811Z,1006.10
2018-05-24T03:48:37.814Z,1006.16
2018-05-24T03:49:37.789Z,1006.17
2018-05-24T03:50:37.763Z,1006.20
2018-05-24T03:51:37.739Z,1006.20
2018-05-24T03:52:37.736Z,1006.19
2018-05-24T03:53:37.738Z,1006.14
2018-05-24T03:54:37.750Z,1006.14
2018-05-24T03:55:37.667Z,1006.12
2018-05-24T03:56:37.672Z,1006.10
2018-05-24T03:57:37.714Z,1006.07
2018-05-24T03:58:37.611Z,1006.04
2018-05-24T03:59:37.607Z,1006.00
2018-05-24T04:00:37.575Z,1006.00
2018-05-24T04:01:37.576Z,1005.93
2018-05-24T04:02:37.550Z,1005.97
2018-05-24T04:03:37.518Z,1005.93
2018-05-24T04:04:37.517Z,1005.92
2018-05-24T04:05:37.601Z,1005.89
2018-05-24T04:06:37.471Z,1005.88
2018-05-24T04:07:37.455Z,1005.90
2018-05-24T04:08:37.470Z,1005.89
2018-05-24T04:09:37.411Z,1005.88
2018-05-24T04:10:37.388Z,1005.87
2018-05-24T04:11:37.418Z,1005.82
2018-05-24T04:12:37.367Z,1005.84
2018-05-24T04:13:37.374Z,1005.88
2018-05-24T04:14:37.317Z,1005.86
2018-05-24T04:15:37.331Z,1005.85
2018-05-24T04:16:37.348Z,1005.85
2018-05-24T04:17:37.271Z,1005.81
2018-05-24T04:18:37.267Z,1005.87
2018-05-24T04:19:37.280Z,1005.82
2018-05-24T04:20:37.278Z,1005.84
2018-05-24T04:21:37.205Z,1005.88
2018-05-24T04:22:37.232Z,1005.89
2018-05-24T04:23:37.159Z,1005.90
2018-05-24T04:24:37.148Z,1005.92
2018-05-24T04:25:37.142Z,1005.88
2018-05-24T04:26:37.192Z,1005.90
2018-05-24T04:27:37.106Z,1005.91
2018-05-24T04:28:37.117Z,1005.90
2018-05-24T04:29:37.116Z,1005.94
2018-05-24T04:30:37.047Z,1005.85
2018-05-24T04:31:37.024Z,1005.85
2018-05-24T04:32:37.009Z,1005.84
2018-05-24T04:33:37.013Z,1005.80
2018-05-24T04:34:36.984Z,1005.80
2018-05-24T04:35:36.946Z,1005.78
2018-05-24T04:36:36.929Z,1005.73
2018-05-24T04:37:36.945Z,1005.76
2018-05-24T04:38:36.888Z,1005.75
2018-05-24T04:39:36.935Z,1005.74
2018-05-24T04:40:36.881Z,1005.77
2018-05-24T04:41:36.866Z,1005.76
2018-05-24T04:42:36.814Z,1005.74
2018-05-24T04:43:36.813Z,1005.72
2018-05-24T04:44:36.810Z,1005.76
2018-05-24T04:45:36.802Z,1005.71
2018-05-24T04:46:36.755Z,1005.72
2018-05-24T04:47:36.761Z,1005.78
2018-05-24T04:48:36.719Z,1005.76
2018-05-24T04:49:36.685Z,1005.83
2018-05-24T04:50:36.673Z,1005.87
2018-05-24T04:51:36.694Z,1005.84
2018-05-24T04:52:36.659Z,1005.84
2018-05-24T04:53:36.619Z,1005.81
2018-05-24T04:54:36.606Z,1005.82
2018-05-24T04:55:36.657Z,1005.88
2018-05-24T04:56:36.573Z,1005.85
2018-05-24T04:57:36.585Z,1005.86
2018-05-24T04:58:36.547Z,1005.91
2018-05-24T04:59:36.510Z,1005.88
2018-05-24T05:00:36.518Z,1005.94
2018-05-24T05:01:36.559Z,1005.85
2018-05-24T05:02:36.487Z,1005.87
2018-05-24T05:03:36.479Z,1005.90
2018-05-24T05:04:36.433Z,1005.95
2018-05-24T05:05:36.406Z,1005.97
2018-05-24T05:06:36.433Z,1005.96
2018-05-24T05:07:36.404Z,1005.97
2018-05-24T05:08:36.460Z,1005.99
2018-05-24T05:09:37.931Z,1005.96
2018-05-24T05:10:36.325Z,1005.95
2018-05-24T05:11:36.315Z,1006.01
2018-05-24T05:12:36.279Z,1006.00
2018-05-24T05:13:36.263Z,1005.97
2018-05-24T05:14:36.392Z,1005.99
2018-05-24T05:15:36.249Z,1005.94
2018-05-24T05:16:36.233Z,1005.93
2018-05-24T05:17:36.233Z,1005.96
2018-05-24T05:18:36.213Z,1005.94
2018-05-24T05:19:36.247Z,1005.93
2018-05-24T05:20:36.165Z,1005.96
2018-05-24T05:21:36.163Z,1005.94
2018-05-24T05:22:36.140Z,1005.98
2018-05-24T05:23:36.126Z,1005.96
2018-05-24T05:24:36.115Z,1005.96
2018-05-24T05:25:36.047Z,1005.96
2018-05-24T05:26:36.036Z,1005.91
2018-05-24T05:27:36.060Z,1005.91
2018-05-24T05:28:35.991Z,1005.93
2018-05-24T05:29:36.031Z,1005.90
2018-05-24T05:30:35.982Z,1005.88
2018-05-24T05:31:35.951Z,1005.91
2018-05-24T05:32:35.947Z,1005.90
2018-05-24T05:33:35.926Z,1005.89
2018-05-24T05:34:35.889Z,1005.92
2018-05-24T05:35:35.911Z,1005.93
2018-05-24T05:36:35.888Z,1005.97
2018-05-24T05:37:35.842Z,1006.03
2018-05-24T05:38:35.870Z,1006.04
2018-05-24T05:39:35.841Z,1005.99
2018-05-24T05:40:35.816Z,1006.01
2018-05-24T05:41:35.851Z,1005.95
2018-05-24T05:42:35.761Z,1005.99
2018-05-24T05:43:35.768Z,1005.97
2018-05-24T05:44:35.770Z,1005.95
2018-05-24T05:45:35.719Z,1006.01
2018-05-24T05:46:35.742Z,1006.00
2018-05-24T05:47:35.668Z,1005.96
2018-05-24T05:48:35.686Z,1005.92
2018-05-24T05:49:35.678Z,1005.96
2018-05-24T05:50:35.611Z,1005.91
2018-05-24T05:51:35.590Z,1005.89
2018-05-24T05:52:35.627Z,1005.93
2018-05-24T05:53:35.611Z,1005.89
2018-05-24T05:54:35.594Z,1005.90
2018-05-24T05:55:35.550Z,1005.94
2018-05-24T05:56:35.588Z,1005.90
2018-05-24T05:58:58.581Z,1005.88
2018-05-24T05:59:58.574Z,1005.84
2018-05-24T06:00:58.578Z,1005.85
2018-05-24T06:01:58.674Z,1005.80
2018-05-24T06:02:58.492Z,1005.84
2018-05-24T06:03:58.429Z,1005.82
2018-05-24T06:04:58.458Z,1005.81
2018-05-24T06:05:58.486Z,1005.82
2018-05-24T06:06:58.375Z,1005.85
2018-05-24T06:09:31.523Z,1005.81
2018-05-24T06:10:21.468Z,1005.82
2018-05-24T06:11:21.479Z,1005.78
2018-05-24T06:12:21.433Z,1005.80
2018-05-24T06:13:21.380Z,1005.76
2018-05-24T06:14:21.353Z,1005.78
2018-05-24T06:15:21.389Z,1005.83
2018-05-24T06:16:21.340Z,1005.85
2018-05-24T06:17:21.301Z,1005.84
2018-05-24T06:18:21.254Z,1005.82
2018-05-24T06:19:21.237Z,1005.86
2018-05-24T06:20:21.266Z,1005.80
2018-05-24T06:21:21.252Z,1005.81
2018-05-24T06:22:21.209Z,1005.77
2018-05-24T06:23:21.208Z,1005.74
2018-05-24T06:24:21.168Z,1005.73
2018-05-24T06:25:21.143Z,1005.71
2018-05-24T06:26:21.139Z,1005.68
2018-05-24T06:27:21.114Z,1005.72
2018-05-24T06:28:21.104Z,1005.73
2018-05-24T06:29:21.166Z,1005.72
2018-05-24T06:30:21.097Z,1005.67
2018-05-24T06:31:21.077Z,1005.73
2018-05-24T06:32:21.029Z,1005.71
2018-05-24T06:33:21.031Z,1005.73
2018-05-24T06:34:20.997Z,1005.72
2018-05-24T06:35:21.019Z,1005.73
2018-05-24T06:36:20.982Z,1005.69
2018-05-24T06:38:44.007Z,1005.70
2018-05-24T06:39:43.986Z,1005.71
2018-05-24T06:40:43.958Z,1005.72
2018-05-24T06:41:43.954Z,1005.72
2018-05-24T06:42:43.950Z,1005.71
2018-05-24T06:43:43.937Z,1005.69
2018-05-24T06:44:43.889Z,1005.75
2018-05-24T06:45:43.869Z,1005.72
2018-05-24T06:46:43.870Z,1005.67
2018-05-24T06:47:43.902Z,1005.69
2018-05-24T06:48:43.820Z,1005.68
2018-05-24T06:49:43.834Z,1005.73
2018-05-24T06:50:43.824Z,1005.74
2018-05-24T06:51:43.775Z,1005.77
2018-05-24T06:52:43.802Z,1005.76
2018-05-24T06:53:43.775Z,1005.70
2018-05-24T06:54:43.723Z,1005.72
2018-05-24T06:55:43.716Z,1005.78
2018-05-24T06:56:43.709Z,1005.77
2018-05-24T06:57:43.703Z,1005.81
2018-05-24T06:58:43.682Z,1005.79
2018-05-24T06:59:43.701Z,1005.84
2018-05-24T07:00:43.625Z,1005.84
2018-05-24T07:01:43.631Z,1005.82
2018-05-24T07:02:43.610Z,1005.84
2018-05-24T07:03:43.596Z,1005.79
2018-05-24T07:04:43.576Z,1005.82
2018-05-24T07:05:43.541Z,1005.81
2018-05-24T07:06:43.519Z,1005.82
2018-05-24T07:07:43.549Z,1005.82
2018-05-24T07:08:43.506Z,1005.83
2018-05-24T07:09:43.483Z,1005.84
2018-05-24T07:10:43.455Z,1005.88
2018-05-24T07:11:43.561Z,1005.92
2018-05-24T07:12:43.422Z,1005.96
2018-05-24T07:13:43.470Z,1005.98
2018-05-24T07:14:43.411Z,1005.99
2018-05-24T07:15:43.441Z,1006.00
2018-05-24T07:16:43.367Z,1006.01
2018-05-24T07:19:16.493Z,1006.06
2018-05-24T07:20:06.414Z,1006.03
2018-05-24T07:21:06.362Z,1006.06
2018-05-24T07:22:06.375Z,1006.04
2018-05-24T07:23:06.382Z,1006.01
2018-05-24T07:24:06.301Z,1006.08
2018-05-24T07:25:06.341Z,1006.04
2018-05-24T07:27:29.360Z,1006.02
2018-05-24T07:29:52.371Z,1005.96
2018-05-24T07:30:52.356Z,1005.98
2018-05-24T07:31:52.344Z,1005.96
2018-05-24T07:33:00.062Z,1005.98
2018-05-24T07:33:52.339Z,1005.95
2018-05-24T07:34:52.272Z,1005.98
2018-05-24T07:35:52.267Z,1005.96
2018-05-24T07:36:52.360Z,1006.02
2018-05-24T07:37:52.301Z,1006.03
2018-05-24T07:40:16.261Z,1006.00
2018-05-24T07:42:50.376Z,1005.97
2018-05-24T07:43:40.271Z,1005.99
2018-05-24T07:44:40.250Z,1005.98
2018-05-24T07:45:40.259Z,1005.97
2018-05-24T07:48:14.460Z,1005.94
2018-05-24T07:49:04.276Z,1005.95
2018-05-24T07:50:04.231Z,1005.94
2018-05-24T07:51:04.227Z,1005.97
2018-05-24T07:52:04.199Z,1005.97
2018-05-24T07:53:04.191Z,1005.98
2018-05-24T07:54:04.161Z,1005.98
2018-05-24T07:55:04.168Z,1006.00
2018-05-24T07:56:04.151Z,1006.07
2018-05-24T07:57:04.171Z,1006.04
2018-05-24T07:59:27.163Z,1006.03
2018-05-24T08:00:27.192Z,1006.03
2018-05-24T08:01:27.387Z,1006.03
2018-05-24T08:03:51.194Z,1006.00
2018-05-24T08:04:51.169Z,1005.95
2018-05-24T08:05:51.095Z,1005.96
2018-05-24T08:06:51.166Z,1005.94
2018-05-24T08:07:51.065Z,1005.91
2018-05-24T08:08:51.080Z,1005.90
2018-05-24T08:09:51.009Z,1005.91
2018-05-24T08:12:14.106Z,1005.89
2018-05-24T08:14:37.282Z,1005.91
2018-05-24T08:17:00.098Z,1005.95
2018-05-24T08:19:33.187Z,1005.93
2018-05-24T08:20:23.138Z,1005.95
2018-05-24T08:21:23.428Z,1005.88
2018-05-24T08:22:23.120Z,1005.85
2018-05-24T08:23:23.112Z,1005.82
2018-05-24T08:24:23.031Z,1005.85
2018-05-24T08:25:23.021Z,1005.89
2018-05-24T08:26:23.007Z,1005.83
2018-05-24T08:27:22.971Z,1005.79
2018-05-24T08:28:22.978Z,1005.81
2018-05-24T08:29:22.957Z,1005.78
2018-05-24T08:30:22.925Z,1005.80
2018-05-24T08:31:22.937Z,1005.81
2018-05-24T08:32:22.900Z,1005.78
2018-05-24T08:33:22.877Z,1005.77
2018-05-24T08:34:22.868Z,1005.72
2018-05-24T08:35:22.878Z,1005.77
2018-05-24T08:36:22.838Z,1005.77
2018-05-24T08:37:22.829Z,1005.75
2018-05-24T08:38:22.871Z,1005.77
2018-05-24T08:39:22.814Z,1005.77
2018-05-24T08:40:22.777Z,1005.77
2018-05-24T08:41:22.775Z,1005.72
2018-05-24T08:42:22.746Z,1005.73
2018-05-24T08:43:22.804Z,1005.73
2018-05-24T08:44:22.758Z,1005.75
2018-05-24T08:45:22.774Z,1005.76
2018-05-24T08:46:22.715Z,1005.79
2018-05-24T08:47:22.786Z,1005.80
2018-05-24T08:48:22.659Z,1005.76
2018-05-24T08:49:22.666Z,1005.73
2018-05-24T08:50:22.615Z,1005.72
2018-05-24T08:51:22.615Z,1005.68
2018-05-24T08:52:22.582Z,1005.72
2018-05-24T08:53:22.621Z,1005.69
2018-05-24T08:54:22.624Z,1005.75
2018-05-24T08:55:22.549Z,1005.72
2018-05-24T08:56:22.522Z,1005.74
2018-05-24T08:57:22.538Z,1005.73
2018-05-24T08:58:22.513Z,1005.71
2018-05-24T08:59:22.486Z,1005.75
2018-05-24T09:00:22.467Z,1005.71
2018-05-24T09:01:22.632Z,1005.78
2018-05-24T09:02:22.429Z,1005.81
2018-05-24T09:03:22.441Z,1005.84
2018-05-24T09:04:22.425Z,1005.84
2018-05-24T09:05:22.386Z,1005.83
2018-05-24T09:06:22.401Z,1005.80
2018-05-24T09:07:22.409Z,1005.84
2018-05-24T09:08:22.358Z,1005.80
2018-05-24T09:09:22.396Z,1005.80
2018-05-24T09:10:22.337Z,1005.81
2018-05-24T09:11:22.359Z,1005.88
2018-05-24T09:12:22.288Z,1005.83
2018-05-24T09:13:22.279Z,1005.85
2018-05-24T09:14:22.268Z,1005.85
2018-05-24T09:15:22.289Z,1005.87
2018-05-24T09:16:22.227Z,1005.83
2018-05-24T09:17:22.228Z,1005.87
2018-05-24T09:18:22.288Z,1005.82
2018-05-24T09:19:22.196Z,1005.85
2018-05-24T09:20:22.170Z,1005.84
2018-05-24T09:21:22.170Z,1005.85
2018-05-24T09:22:22.155Z,1005.86
2018-05-24T09:23:22.147Z,1005.84
2018-05-24T09:24:22.144Z,1005.84
2018-05-24T09:25:22.092Z,1005.83
2018-05-24T09:26:22.079Z,1005.87
2018-05-24T09:27:22.107Z,1005.88
2018-05-24T09:28:22.076Z,1005.83
2018-05-24T09:29:22.098Z,1005.86
2018-05-24T09:30:22.028Z,1005.86
2018-05-24T09:31:22.043Z,1005.87
2018-05-24T09:32:22.020Z,1005.92
2018-05-24T09:33:21.983Z,1005.89
2018-05-24T09:34:21.957Z,1005.92
2018-05-24T09:35:21.991Z,1005.91
2018-05-24T09:36:22.013Z,1005.95
2018-05-24T09:37:21.938Z,1005.91
2018-05-24T09:38:21.924Z,1005.91
2018-05-24T09:39:21.930Z,1005.88
2018-05-24T09:40:21.913Z,1005.86
2018-05-24T09:41:21.889Z,1005.86
2018-05-24T09:42:21.847Z,1005.81
2018-05-24T09:43:21.820Z,1005.87
2018-05-24T09:44:21.801Z,1005.90
2018-05-24T09:45:21.788Z,1005.90
2018-05-24T09:46:21.781Z,1005.87
2018-05-24T09:47:21.759Z,1005.89
2018-05-24T09:48:21.743Z,1005.84
2018-05-24T09:49:21.777Z,1005.84
2018-05-24T09:50:21.756Z,1005.75
2018-05-24T09:51:21.728Z,1005.76
2018-05-24T09:52:21.735Z,1005.78
2018-05-24T09:53:21.695Z,1005.76
2018-05-24T09:54:21.666Z,1005.78
2018-05-24T09:55:21.782Z,1005.80
2018-05-24T09:56:21.647Z,1005.79
2018-05-24T09:57:21.658Z,1005.75
2018-05-24T09:58:21.619Z,1005.74
2018-05-24T09:59:21.594Z,1005.73
2018-05-24T10:00:21.600Z,1005.72
2018-05-24T10:01:21.569Z,1005.72
2018-05-24T10:02:21.545Z,1005.73
2018-05-24T10:03:21.538Z,1005.68
2018-05-24T10:04:21.527Z,1005.68
2018-05-24T10:05:21.506Z,1005.67
2018-05-24T10:06:21.551Z,1005.65
2018-05-24T10:07:21.471Z,1005.68
2018-05-24T10:08:21.497Z,1005.67
2018-05-24T10:09:21.491Z,1005.67
2018-05-24T10:10:21.466Z,1005.65
2018-05-24T10:11:21.463Z,1005.61
2018-05-24T10:12:21.420Z,1005.59
2018-05-24T10:13:21.408Z,1005.58
2018-05-24T10:14:21.380Z,1005.62
2018-05-24T10:15:21.409Z,1005.57
2018-05-24T10:16:21.484Z,1005.54
2018-05-24T10:17:21.381Z,1005.55
2018-05-24T10:18:21.334Z,1005.49
2018-05-24T10:19:21.341Z,1005.55
2018-05-24T10:20:21.309Z,1005.52
2018-05-24T10:21:21.287Z,1005.52
2018-05-24T10:22:21.302Z,1005.55
2018-05-24T10:23:21.291Z,1005.51
2018-05-24T10:24:21.267Z,1005.52
2018-05-24T10:25:21.238Z,1005.53
2018-05-24T10:26:21.259Z,1005.52
2018-05-24T10:27:21.208Z,1005.48
2018-05-24T10:28:21.201Z,1005.49
2018-05-24T10:29:21.264Z,1005.45
2018-05-24T10:30:21.214Z,1005.49
2018-05-24T10:31:21.205Z,1005.50
2018-05-24T10:32:21.151Z,1005.50
2018-05-24T10:33:21.195Z,1005.47
2018-05-24T10:34:21.148Z,1005.50
2018-05-24T10:35:21.173Z,1005.53
2018-05-24T10:36:21.159Z,1005.52
2018-05-24T10:37:21.129Z,1005.49
2018-05-24T10:38:21.154Z,1005.55
2018-05-24T10:39:21.083Z,1005.50
2018-05-24T10:40:21.113Z,1005.50
2018-05-24T10:41:21.064Z,1005.51
2018-05-24T10:42:21.044Z,1005.53
2018-05-24T10:43:21.071Z,1005.50
2018-05-24T10:44:21.003Z,1005.53
2018-05-24T10:45:20.994Z,1005.48
2018-05-24T10:46:20.980Z,1005.56
2018-05-24T10:47:21.012Z,1005.46
2018-05-24T10:48:20.973Z,1005.52
2018-05-24T10:49:20.952Z,1005.52
2018-05-24T10:50:20.953Z,1005.53
2018-05-24T10:51:20.989Z,1005.58
2018-05-24T10:52:20.975Z,1005.57
2018-05-24T10:53:20.944Z,1005.51
2018-05-24T10:54:20.940Z,1005.52
2018-05-24T10:55:20.968Z,1005.51
2018-05-24T10:56:20.874Z,1005.50
2018-05-24T10:57:20.861Z,1005.52
2018-05-24T10:58:20.925Z,1005.44
2018-05-24T10:59:20.865Z,1005.45
2018-05-24T11:00:20.861Z,1005.48
2018-05-24T11:01:20.843Z,1005.44
2018-05-24T11:02:20.855Z,1005.41
2018-05-24T11:03:20.887Z,1005.43
2018-05-24T11:04:20.869Z,1005.41
2018-05-24T11:05:20.823Z,1005.42
2018-05-24T11:06:20.819Z,1005.33
2018-05-24T11:07:20.781Z,1005.41
2018-05-24T11:08:20.755Z,1005.36
2018-05-24T11:09:20.754Z,1005.38
2018-05-24T11:10:20.736Z,1005.39
2018-05-24T11:11:20.724Z,1005.41
2018-05-24T11:12:20.770Z,1005.36
2018-05-24T11:13:20.705Z,1005.33
2018-05-24T11:14:20.726Z,1005.31
2018-05-24T11:15:20.709Z,1005.29
2018-05-24T11:16:20.699Z,1005.30
2018-05-24T11:17:20.676Z,1005.30
2018-05-24T11:18:20.705Z,1005.28
2018-05-24T11:19:20.690Z,1005.30
2018-05-24T11:20:20.641Z,1005.28
2018-05-24T11:21:20.726Z,1005.25
2018-05-24T11:22:20.648Z,1005.32
2018-05-24T11:23:20.622Z,1005.27
2018-05-24T11:24:20.649Z,1005.30
2018-05-24T11:25:20.606Z,1005.22
2018-05-24T11:26:20.587Z,1005.26
2018-05-24T11:27:20.590Z,1005.24
2018-05-24T11:28:20.624Z,1005.26
2018-05-24T11:29:20.571Z,1005.26
2018-05-24T11:30:20.606Z,1005.26
2018-05-24T11:31:20.589Z,1005.23
2018-05-24T11:32:20.551Z,1005.25
2018-05-24T11:33:20.549Z,1005.29
2018-05-24T11:34:20.587Z,1005.29
2018-05-24T11:35:20.592Z,1005.26
2018-05-24T11:36:20.491Z,1005.26
2018-05-24T11:37:20.543Z,1005.22
2018-05-24T11:38:20.553Z,1005.24
2018-05-24T11:39:20.495Z,1005.21
2018-05-24T11:40:20.468Z,1005.22
2018-05-24T11:41:20.470Z,1005.20
2018-05-24T11:42:20.492Z,1005.21
2018-05-24T11:43:20.614Z,1005.21
2018-05-24T11:44:20.419Z,1005.18
2018-05-24T11:45:20.405Z,1005.18
2018-05-24T11:46:20.476Z,1005.20
2018-05-24T11:47:20.449Z,1005.20
2018-05-24T11:48:20.445Z,1005.19
2018-05-24T11:49:20.391Z,1005.18
2018-05-24T11:50:20.390Z,1005.22
2018-05-24T11:51:20.385Z,1005.16
2018-05-24T11:52:20.354Z,1005.17
2018-05-24T11:53:20.337Z,1005.15
2018-05-24T11:54:20.321Z,1005.15
2018-05-24T11:55:20.316Z,1005.16
2018-05-24T11:56:20.324Z,1005.12
2018-05-24T11:57:20.360Z,1005.13
2018-05-24T11:58:20.325Z,1005.04
2018-05-24T11:59:20.301Z,1005.05
2018-05-24T12:00:20.270Z,1005.06
2018-05-24T12:01:20.262Z,1005.01
2018-05-24T12:02:20.302Z,1005.02
2018-05-24T12:03:20.313Z,1005.03
2018-05-24T12:04:20.245Z,1005.01
2018-05-24T12:05:20.252Z,1005.06
2018-05-24T12:06:20.248Z,1005.00
2018-05-24T12:07:20.208Z,1005.03
2018-05-24T12:08:20.199Z,1005.00
2018-05-24T12:09:20.271Z,1004.97
2018-05-24T12:10:20.200Z,1004.96
2018-05-24T12:11:20.195Z,1004.97
2018-05-24T12:12:20.198Z,1004.94
2018-05-24T12:13:20.200Z,1004.95
2018-05-24T12:14:20.166Z,1004.88
2018-05-24T12:15:20.215Z,1004.86
2018-05-24T12:16:20.144Z,1004.88
2018-05-24T12:17:20.230Z,1004.95
2018-05-24T12:18:20.154Z,1004.89
2018-05-24T12:19:20.138Z,1004.92
2018-05-24T12:20:20.123Z,1004.88
2018-05-24T12:21:20.112Z,1004.91
2018-05-24T12:22:20.090Z,1004.86
2018-05-24T12:23:20.081Z,1004.78
2018-05-24T12:24:20.074Z,1004.77
2018-05-24T12:25:20.087Z,1004.77
2018-05-24T12:26:20.093Z,1004.75
2018-05-24T12:27:20.073Z,1004.74
2018-05-24T12:28:20.117Z,1004.71
2018-05-24T12:29:20.107Z,1004.68
2018-05-24T12:30:20.070Z,1004.70
2018-05-24T12:31:20.025Z,1004.72
2018-05-24T12:32:20.022Z,1004.69
2018-05-24T12:33:20.038Z,1004.67
2018-05-24T12:34:20.023Z,1004.60
2018-05-24T12:35:20.138Z,1004.60
2018-05-24T12:36:19.998Z,1004.60
2018-05-24T12:37:20.016Z,1004.55